createdAt,value
2023-03-13T00:01:33.789Z,94.51
2023-03-13T00:03:58.903Z,95.58
2023-03-13T00:06:22.999Z,94.99
2023-03-13T00:08:46.566Z,95.71
2023-03-13T00:11:12.668Z,94.72
2023-03-13T00:13:36.953Z,96.73
2023-03-13T00:16:04.500Z,97.19
2023-03-13T00:18:28.030Z,98.93
2023-03-13T00:21:00.301Z,98.45
2023-03-13T00:23:23.929Z,98.22
2023-03-13T00:25:47.427Z,97.91
2023-03-13T00:28:11.013Z,98.26
2023-03-13T00:30:34.667Z,97.49
2023-03-13T00:32:58.338Z,98.29
2023-03-13T00:35:22.064Z,98.46
2023-03-13T00:37:47.123Z,98.65
2023-03-13T00:40:12.708Z,98.92
2023-03-13T00:42:36.657Z,99.28
2023-03-13T00:45:00.185Z,99.09
2023-03-13T00:47:23.775Z,98.51
2023-03-13T00:49:47.298Z,100.00
2023-03-13T00:52:10.893Z,99.80
2023-03-13T00:54:35.843Z,98.98
2023-03-13T00:56:59.632Z,100.00
2023-03-13T00:59:23.184Z,100.00
2023-03-13T01:01:47.983Z,100.00
2023-03-13T01:04:13.430Z,100.00
2023-03-13T01:06:40.761Z,100.00
2023-03-13T01:09:07.350Z,99.75
2023-03-13T01:11:35.681Z,98.80
2023-03-13T01:14:01.084Z,98.54
2023-03-13T01:16:25.945Z,99.29
2023-03-13T01:18:52.655Z,98.07
2023-03-13T01:21:19.209Z,98.16
2023-03-13T01:23:42.791Z,96.73
2023-03-13T01:26:08.561Z,96.94
2023-03-13T01:28:33.710Z,96.68
2023-03-13T01:30:57.385Z,97.85
2023-03-13T01:33:21.270Z,96.20
2023-03-13T01:35:45.073Z,97.27
2023-03-13T01:38:10.286Z,96.48
2023-03-13T01:40:40.615Z,96.52
2023-03-13T01:43:26.691Z,96.83
2023-03-13T01:46:04.384Z,95.77
2023-03-13T01:48:43.206Z,95.95
2023-03-13T01:51:11.848Z,96.99
2023-03-13T01:53:38.619Z,95.48
2023-03-13T01:56:07.738Z,94.90
2023-03-13T01:58:32.175Z,94.54
2023-03-13T02:00:57.180Z,94.65
2023-03-13T02:03:22.533Z,93.42
2023-03-13T02:05:48.183Z,94.14
2023-03-13T02:08:19.048Z,93.47
2023-03-13T02:10:51.531Z,93.27
2023-03-13T02:13:17.813Z,93.32
2023-03-13T02:15:42.765Z,93.53
2023-03-13T02:18:08.061Z,92.52
2023-03-13T02:20:31.705Z,93.21
2023-03-13T02:23:03.268Z,92.77
2023-03-13T02:25:40.391Z,92.45
2023-03-13T02:28:09.739Z,93.29
2023-03-13T02:30:36.100Z,92.60
2023-03-13T02:33:01.258Z,92.99
2023-03-13T02:35:25.852Z,92.45
2023-03-13T02:37:56.042Z,92.46
2023-03-13T02:40:27.041Z,92.73
2023-03-13T02:42:56.285Z,92.79
2023-03-13T02:45:20.168Z,92.88
2023-03-13T02:47:44.576Z,92.48
2023-03-13T02:50:10.088Z,91.91
2023-03-13T02:52:39.130Z,92.06
2023-03-13T02:55:09.256Z,92.07
2023-03-13T02:57:34.016Z,91.72
2023-03-13T02:59:59.200Z,90.86
2023-03-13T03:02:22.964Z,91.97
2023-03-13T03:04:46.681Z,92.89
2023-03-13T03:07:10.252Z,92.58
2023-03-13T03:09:34.893Z,92.64
2023-03-13T03:12:03.314Z,91.93
2023-03-13T03:14:26.955Z,92.26
2023-03-13T03:16:52.147Z,91.52
2023-03-13T03:19:16.481Z,91.81
2023-03-13T03:21:40.549Z,92.22
2023-03-13T03:24:04.805Z,91.33
2023-03-13T03:26:28.496Z,91.13
2023-03-13T03:28:52.247Z,90.02
2023-03-13T03:31:17.227Z,90.05
2023-03-13T03:33:43.839Z,90.45
2023-03-13T03:36:12.247Z,89.89
2023-03-13T03:38:35.978Z,90.24
2023-03-13T03:40:59.498Z,91.30
2023-03-13T03:43:23.513Z,92.47
2023-03-13T03:45:47.301Z,92.11
2023-03-13T03:48:11.594Z,91.90
2023-03-13T03:50:36.844Z,91.69
2023-03-13T03:53:00.915Z,91.32
2023-03-13T03:55:24.511Z,91.95
2023-03-13T03:57:48.412Z,92.03
2023-03-13T04:00:20.262Z,94.41
2023-03-13T04:02:49.524Z,93.66
2023-03-13T04:05:13.129Z,92.43
2023-03-13T04:07:39.074Z,92.18
2023-03-13T04:10:02.691Z,92.82
2023-03-13T04:12:33.205Z,92.69
2023-03-13T04:14:56.853Z,92.39
2023-03-13T04:17:20.376Z,92.92
2023-03-13T04:19:44.057Z,94.73
2023-03-13T04:22:07.618Z,93.79
2023-03-13T04:24:32.697Z,94.60
2023-03-13T04:26:56.255Z,93.82
2023-03-13T04:29:19.831Z,93.48
2023-03-13T04:31:56.164Z,93.47
2023-03-13T04:34:35.890Z,95.45
2023-03-13T04:37:32.048Z,95.63
2023-03-13T04:40:17.176Z,94.49
2023-03-13T04:43:02.846Z,95.70
2023-03-13T04:45:45.158Z,96.44
2023-03-13T04:48:27.344Z,97.17
2023-03-13T04:51:01.910Z,98.16
2023-03-13T04:53:42.064Z,97.06
2023-03-13T04:56:43.582Z,95.00
2023-03-13T04:59:40.348Z,96.76
2023-03-13T05:02:16.251Z,95.80
2023-03-13T05:04:55.282Z,96.08
2023-03-13T05:07:37.730Z,95.91
2023-03-13T05:10:10.053Z,96.14
2023-03-13T05:12:53.383Z,97.47
2023-03-13T05:15:43.277Z,96.58
2023-03-13T05:18:25.636Z,96.38
2023-03-13T05:21:05.792Z,96.99
2023-03-13T05:23:47.971Z,96.62
2023-03-13T05:26:23.989Z,98.06
2023-03-13T05:29:12.270Z,97.83
2023-03-13T05:31:52.077Z,97.97
2023-03-13T05:34:34.143Z,97.66
2023-03-13T05:37:23.640Z,98.09
2023-03-13T05:39:55.626Z,100.00
2023-03-13T05:42:22.393Z,99.09
2023-03-13T05:44:57.987Z,99.73
2023-03-13T05:47:54.118Z,99.41
2023-03-13T05:50:56.357Z,98.91
2023-03-13T05:53:38.815Z,99.98
2023-03-13T05:56:34.892Z,99.69
2023-03-13T05:59:08.473Z,99.52
2023-03-13T06:01:53.704Z,99.38
2023-03-13T06:04:24.935Z,98.20
2023-03-13T06:06:49.205Z,100.00
2023-03-13T06:09:13.977Z,100.00
2023-03-13T06:11:37.766Z,99.88
2023-03-13T06:14:02.511Z,99.60
2023-03-13T06:16:32.457Z,98.39
2023-03-13T06:19:12.181Z,97.69
2023-03-13T06:21:35.833Z,98.25
2023-03-13T06:23:59.393Z,98.76
2023-03-13T06:26:24.442Z,98.62
2023-03-13T06:28:48.076Z,99.15
2023-03-13T06:31:12.216Z,100.00
2023-03-13T06:33:37.282Z,99.70
2023-03-13T06:36:04.288Z,99.88
2023-03-13T06:38:28.373Z,100.00
2023-03-13T06:40:52.031Z,99.11
2023-03-13T06:43:15.628Z,99.71
2023-03-13T06:45:39.236Z,98.44
2023-03-13T06:48:02.729Z,99.78
2023-03-13T06:50:26.437Z,99.76
2023-03-13T06:52:51.313Z,99.62
2023-03-13T06:55:15.094Z,99.65
2023-03-13T06:57:38.609Z,99.53
2023-03-13T07:00:02.294Z,99.34
2023-03-13T07:02:25.938Z,99.09
2023-03-13T07:04:49.525Z,100.00
2023-03-13T07:07:25.714Z,100.00
2023-03-13T07:09:56.032Z,100.00
2023-03-13T07:12:19.560Z,100.00
2023-03-13T07:14:43.133Z,100.00
2023-03-13T07:17:06.805Z,100.00
2023-03-13T07:19:30.688Z,100.00
2023-03-13T07:21:54.444Z,100.00
2023-03-13T07:24:18.143Z,100.00
2023-03-13T07:26:57.978Z,100.00
2023-03-13T07:29:26.825Z,100.00
2023-03-13T07:31:50.503Z,100.00
2023-03-13T07:34:14.155Z,100.00
2023-03-13T07:36:37.710Z,100.00
2023-03-13T07:39:01.291Z,100.00
2023-03-13T07:41:24.949Z,100.00
2023-03-13T07:43:49.963Z,100.00
2023-03-13T07:46:15.906Z,100.00
2023-03-13T07:48:41.456Z,100.00
2023-03-13T07:51:05.928Z,100.00
2023-03-13T07:53:30.784Z,100.00
2023-03-13T07:55:59.491Z,100.00
2023-03-13T07:58:24.033Z,100.00
2023-03-13T08:00:49.113Z,100.00
2023-03-13T08:03:12.751Z,100.00
2023-03-13T08:05:36.335Z,100.00
2023-03-13T08:08:00.176Z,100.00
2023-03-13T08:10:23.679Z,100.00
2023-03-13T08:12:47.280Z,100.00
2023-03-13T08:15:11.607Z,100.00
2023-03-13T08:17:36.633Z,100.00
2023-03-13T08:20:00.144Z,100.00
2023-03-13T08:22:23.749Z,100.00
2023-03-13T08:24:47.285Z,100.00
2023-03-13T08:27:10.857Z,100.00
2023-03-13T08:29:34.434Z,100.00
2023-03-13T08:31:58.043Z,100.00
2023-03-13T08:34:22.989Z,100.00
2023-03-13T08:36:46.650Z,100.00
2023-03-13T08:39:14.326Z,100.00
2023-03-13T08:41:40.652Z,100.00
2023-03-13T08:44:05.333Z,100.00
2023-03-13T08:46:31.616Z,100.00
2023-03-13T08:48:56.375Z,100.00
2023-03-13T08:51:24.108Z,100.00
2023-03-13T08:53:48.417Z,100.00
2023-03-13T08:56:14.276Z,100.00
2023-03-13T08:58:38.014Z,100.00
2023-03-13T09:01:04.592Z,100.00
2023-03-13T09:03:28.195Z,100.00
2023-03-13T09:05:56.237Z,100.00
2023-03-13T09:08:21.410Z,100.00
2023-03-13T09:10:44.987Z,100.00
2023-03-13T09:13:08.546Z,100.00
2023-03-13T09:15:32.201Z,100.00
2023-03-13T09:17:55.958Z,100.00
2023-03-13T09:20:19.837Z,100.00
2023-03-13T09:22:43.346Z,100.00
2023-03-13T09:25:09.644Z,100.00
2023-03-13T09:27:33.180Z,100.00
2023-03-13T09:29:56.806Z,100.00
2023-03-13T09:32:20.633Z,100.00
2023-03-13T09:34:44.310Z,100.00
2023-03-13T09:37:08.865Z,100.00
2023-03-13T09:39:32.454Z,100.00
2023-03-13T09:42:09.414Z,100.00
2023-03-13T09:44:39.720Z,100.00
2023-03-13T09:47:10.974Z,100.00
2023-03-13T09:49:39.490Z,100.00
2023-03-13T09:52:15.359Z,100.00
2023-03-13T09:54:43.252Z,100.00
2023-03-13T09:57:16.870Z,100.00
2023-03-13T09:59:49.054Z,100.00
2023-03-13T10:02:25.190Z,100.00
2023-03-13T10:04:53.581Z,100.00
2023-03-13T10:07:17.197Z,100.00
2023-03-13T10:09:42.419Z,100.00
2023-03-13T10:12:14.556Z,100.00
2023-03-13T10:14:46.781Z,100.00
2023-03-13T10:17:31.400Z,100.00
2023-03-13T10:20:01.155Z,100.00
2023-03-13T10:22:30.121Z,100.00
2023-03-13T10:25:00.378Z,100.00
2023-03-13T10:27:25.321Z,100.00
2023-03-13T10:29:49.056Z,100.00
2023-03-13T10:32:17.169Z,100.00
2023-03-13T10:34:53.570Z,100.00
2023-03-13T10:37:22.755Z,100.00
2023-03-13T10:39:46.296Z,100.00
2023-03-13T10:42:22.615Z,100.00
2023-03-13T10:44:47.739Z,100.00
2023-03-13T10:47:15.183Z,100.00
2023-03-13T10:49:50.497Z,100.00
2023-03-13T10:52:33.579Z,100.00
2023-03-13T10:55:02.589Z,100.00
2023-03-13T10:57:32.277Z,100.00
2023-03-13T10:59:58.589Z,100.00
2023-03-13T11:02:26.891Z,100.00
2023-03-13T11:04:53.903Z,98.74
2023-03-13T11:07:26.889Z,97.97
2023-03-13T11:10:00.554Z,96.74
2023-03-13T11:12:24.150Z,96.18
2023-03-13T11:14:48.076Z,94.03
2023-03-13T11:17:30.133Z,95.46
2023-03-13T11:20:06.970Z,94.57
2023-03-13T11:22:40.664Z,92.75
2023-03-13T11:25:17.779Z,94.04
2023-03-13T11:27:51.517Z,93.13
2023-03-13T11:30:40.198Z,91.89
2023-03-13T11:33:11.546Z,92.08
2023-03-13T11:35:41.775Z,91.06
2023-03-13T11:38:10.535Z,90.67
2023-03-13T11:40:41.157Z,91.47
2023-03-13T11:43:26.408Z,90.37
2023-03-13T11:46:12.296Z,89.78
2023-03-13T11:49:19.808Z,90.36
2023-03-13T11:52:02.097Z,90.15
2023-03-13T11:54:59.178Z,89.13
2023-03-13T11:57:30.902Z,89.03
2023-03-13T12:00:15.423Z,88.06
2023-03-13T12:02:44.500Z,88.29
2023-03-13T12:05:14.116Z,88.33
2023-03-13T12:07:43.911Z,88.38
2023-03-13T12:10:13.989Z,87.93
2023-03-13T12:12:44.437Z,87.26
2023-03-13T12:15:23.118Z,87.26
2023-03-13T12:17:53.459Z,86.89
2023-03-13T12:20:26.199Z,86.18
2023-03-13T12:22:59.723Z,85.27
2023-03-13T12:25:28.939Z,86.21
2023-03-13T12:27:56.422Z,85.43
2023-03-13T12:30:35.562Z,84.88
2023-03-13T12:33:07.998Z,83.51
2023-03-13T12:35:34.333Z,84.95
2023-03-13T12:38:06.805Z,83.85
2023-03-13T12:40:38.862Z,83.19
2023-03-13T12:43:11.839Z,83.48
2023-03-13T12:45:40.310Z,82.42
2023-03-13T12:48:27.384Z,82.48
2023-03-13T12:51:11.319Z,82.39
2023-03-13T12:54:13.744Z,81.23
2023-03-13T12:57:16.007Z,80.64
2023-03-13T12:59:42.634Z,79.94
2023-03-13T13:02:19.140Z,79.83
2023-03-13T13:04:47.191Z,78.71
2023-03-13T13:07:24.688Z,77.96
2023-03-13T13:10:05.898Z,77.29
2023-03-13T13:12:29.748Z,77.21
2023-03-13T13:15:20.131Z,77.50
2023-03-13T13:18:02.091Z,76.82
2023-03-13T13:20:46.172Z,74.91
2023-03-13T13:23:37.686Z,76.00
2023-03-13T13:26:50.077Z,74.94
2023-03-13T13:29:56.337Z,74.60
2023-03-13T13:32:30.585Z,75.27
2023-03-13T13:35:03.125Z,74.58
2023-03-13T13:37:29.948Z,74.79
2023-03-13T13:40:23.537Z,74.78
2023-03-13T13:42:56.001Z,72.36
2023-03-13T13:45:30.468Z,73.71
2023-03-13T13:48:35.882Z,74.07
2023-03-13T13:51:25.986Z,72.15
2023-03-13T13:53:53.082Z,72.89
2023-03-13T13:56:41.098Z,72.48
2023-03-13T13:59:25.330Z,71.72
2023-03-13T14:01:51.171Z,72.36
2023-03-13T14:04:23.964Z,71.81
2023-03-13T14:06:50.458Z,71.65
2023-03-13T14:09:25.413Z,71.61
2023-03-13T14:11:49.529Z,72.15
2023-03-13T14:14:17.836Z,70.24
2023-03-13T14:16:46.333Z,69.87
2023-03-13T14:19:24.333Z,69.65
2023-03-13T14:21:48.003Z,70.35
2023-03-13T14:24:15.747Z,69.33
2023-03-13T14:26:45.292Z,69.88
2023-03-13T14:29:08.913Z,70.65
2023-03-13T14:31:36.017Z,69.76
2023-03-13T14:34:04.713Z,68.94
2023-03-13T14:36:30.777Z,69.30
2023-03-13T14:38:57.655Z,69.76
2023-03-13T14:41:33.783Z,68.84
2023-03-13T14:44:06.063Z,69.45
2023-03-13T14:46:33.705Z,68.61
2023-03-13T14:48:57.979Z,69.46
2023-03-13T14:51:25.874Z,69.58
2023-03-13T14:53:59.211Z,69.45
2023-03-13T14:56:22.956Z,69.80
2023-03-13T14:58:48.681Z,70.57
2023-03-13T15:01:30.675Z,69.12
2023-03-13T15:03:54.406Z,68.83
2023-03-13T15:06:21.177Z,69.54
2023-03-13T15:08:46.831Z,69.87
2023-03-13T15:11:23.555Z,69.76
2023-03-13T15:13:47.260Z,70.07
2023-03-13T15:16:16.926Z,69.94
2023-03-13T15:18:40.639Z,70.64
2023-03-13T15:21:24.335Z,69.20
2023-03-13T15:23:52.362Z,70.29
2023-03-13T15:26:15.871Z,69.83
2023-03-13T15:28:40.902Z,69.12
2023-03-13T15:31:04.539Z,69.60
2023-03-13T15:33:30.606Z,69.50
2023-03-13T15:35:54.192Z,69.39
2023-03-13T15:38:20.277Z,70.00
2023-03-13T15:40:44.410Z,70.34
2023-03-13T15:43:08.409Z,69.69
2023-03-13T15:45:33.623Z,70.03
2023-03-13T15:47:57.417Z,71.00
2023-03-13T15:50:25.571Z,71.02
2023-03-13T15:52:50.283Z,69.91
2023-03-13T15:55:14.884Z,70.67
2023-03-13T15:57:44.129Z,70.61
2023-03-13T16:00:16.523Z,71.26
2023-03-13T16:02:41.560Z,71.93
2023-03-13T16:05:05.693Z,71.27
2023-03-13T16:07:29.284Z,72.04
2023-03-13T16:09:52.819Z,71.26
2023-03-13T16:12:16.631Z,72.61
2023-03-13T16:14:41.187Z,71.35
2023-03-13T16:17:13.469Z,71.20
2023-03-13T16:19:38.630Z,72.08
2023-03-13T16:22:02.178Z,72.14
2023-03-13T16:24:25.916Z,71.54
2023-03-13T16:26:49.505Z,71.12
2023-03-13T16:29:15.649Z,71.47
2023-03-13T16:31:39.347Z,71.63
2023-03-13T16:34:03.549Z,72.54
2023-03-13T16:36:32.176Z,72.05
2023-03-13T16:38:56.026Z,71.46
2023-03-13T16:41:21.988Z,71.49
2023-03-13T16:43:46.299Z,72.64
2023-03-13T16:46:16.356Z,72.18
2023-03-13T16:48:40.072Z,72.09
2023-03-13T16:51:05.254Z,72.34
2023-03-13T16:53:32.047Z,72.11
2023-03-13T16:55:55.825Z,73.26
2023-03-13T16:58:19.656Z,73.08
2023-03-13T17:00:46.880Z,72.56
2023-03-13T17:03:14.342Z,72.67
2023-03-13T17:05:37.932Z,73.13
2023-03-13T17:08:01.525Z,73.58
2023-03-13T17:10:28.661Z,73.63
2023-03-13T17:12:52.591Z,72.80
2023-03-13T17:15:16.542Z,73.86
2023-03-13T17:17:40.944Z,74.05
2023-03-13T17:20:06.596Z,74.27
2023-03-13T17:22:30.238Z,74.83
2023-03-13T17:24:53.769Z,74.60
2023-03-13T17:27:19.351Z,74.66
2023-03-13T17:29:43.706Z,73.80
2023-03-13T17:32:07.711Z,74.79
2023-03-13T17:34:31.355Z,74.60
2023-03-13T17:36:55.018Z,74.28
2023-03-13T17:39:18.679Z,74.87
2023-03-13T17:41:42.368Z,75.83
2023-03-13T17:44:08.505Z,75.93
2023-03-13T17:46:36.094Z,76.27
2023-03-13T17:48:59.716Z,75.70
2023-03-13T17:51:26.051Z,75.77
2023-03-13T17:53:50.812Z,75.89
2023-03-13T17:56:17.517Z,76.47
2023-03-13T17:58:41.088Z,75.98
2023-03-13T18:01:06.903Z,75.78
2023-03-13T18:03:30.464Z,76.06
2023-03-13T18:05:55.746Z,76.32
2023-03-13T18:08:19.265Z,77.01
2023-03-13T18:10:42.859Z,77.28
2023-03-13T18:13:06.387Z,77.00
2023-03-13T18:15:30.170Z,77.14
2023-03-13T18:17:55.764Z,76.82
2023-03-13T18:20:22.031Z,76.72
2023-03-13T18:22:45.629Z,77.23
2023-03-13T18:25:10.566Z,77.82
2023-03-13T18:27:34.111Z,76.90
2023-03-13T18:29:57.827Z,76.91
2023-03-13T18:32:21.444Z,76.73
2023-03-13T18:34:46.752Z,76.94
2023-03-13T18:37:23.358Z,77.16
2023-03-13T18:39:49.868Z,77.67
2023-03-13T18:42:13.459Z,77.42
2023-03-13T18:44:37.072Z,77.17
2023-03-13T18:47:00.750Z,78.06
2023-03-13T18:49:24.926Z,77.01
2023-03-13T18:51:50.126Z,77.21
2023-03-13T18:54:13.901Z,78.04
2023-03-13T18:56:38.214Z,78.10
2023-03-13T18:59:01.898Z,77.39
2023-03-13T19:01:27.607Z,77.89
2023-03-13T19:03:51.660Z,78.36
2023-03-13T19:06:27.303Z,78.65
2023-03-13T19:08:54.436Z,78.14
2023-03-13T19:11:19.964Z,78.34
2023-03-13T19:13:43.972Z,77.87
2023-03-13T19:16:16.986Z,77.82
2023-03-13T19:18:40.719Z,77.60
2023-03-13T19:21:04.278Z,77.40
2023-03-13T19:23:28.068Z,77.54
2023-03-13T19:25:53.489Z,77.48
2023-03-13T19:28:22.996Z,76.65
2023-03-13T19:30:47.678Z,77.47
2023-03-13T19:33:11.878Z,77.64
2023-03-13T19:35:35.525Z,77.47
2023-03-13T19:37:59.103Z,77.34
2023-03-13T19:40:28.474Z,77.15
2023-03-13T19:42:53.433Z,76.46
2023-03-13T19:45:19.757Z,76.90
2023-03-13T19:47:43.484Z,77.33
2023-03-13T19:50:08.431Z,77.07
2023-03-13T19:52:32.025Z,77.82
2023-03-13T19:54:55.926Z,76.82
2023-03-13T19:57:19.616Z,76.67
2023-03-13T19:59:44.609Z,77.44
2023-03-13T20:02:09.232Z,77.70
2023-03-13T20:04:33.206Z,77.89
2023-03-13T20:06:56.927Z,78.04
2023-03-13T20:09:21.490Z,77.18
2023-03-13T20:11:45.596Z,77.06
2023-03-13T20:14:09.648Z,77.86
2023-03-13T20:16:35.453Z,78.85
2023-03-13T20:19:00.644Z,78.26
2023-03-13T20:21:25.797Z,78.08
2023-03-13T20:23:51.396Z,77.83
2023-03-13T20:26:17.702Z,78.57
2023-03-13T20:28:43.511Z,78.81
2023-03-13T20:31:08.830Z,79.30
2023-03-13T20:33:34.720Z,79.52
2023-03-13T20:36:00.258Z,79.96
2023-03-13T20:38:23.994Z,79.55
2023-03-13T20:40:53.838Z,79.88
2023-03-13T20:43:17.357Z,80.10
2023-03-13T20:45:40.903Z,80.93
2023-03-13T20:48:04.720Z,80.02
2023-03-13T20:50:29.683Z,80.02
2023-03-13T20:52:53.247Z,81.13
2023-03-13T20:55:17.345Z,81.17
2023-03-13T20:57:40.876Z,82.13
2023-03-13T21:00:06.826Z,81.84
2023-03-13T21:02:30.390Z,82.15
2023-03-13T21:04:54.186Z,81.43
2023-03-13T21:07:19.306Z,82.21
2023-03-13T21:09:42.873Z,81.79
2023-03-13T21:12:06.981Z,81.02
2023-03-13T21:14:30.860Z,81.38
2023-03-13T21:16:54.579Z,82.67
2023-03-13T21:19:18.216Z,83.11
2023-03-13T21:21:41.827Z,83.02
2023-03-13T21:24:07.927Z,82.76
2023-03-13T21:26:32.353Z,82.44
2023-03-13T21:28:55.939Z,82.33
2023-03-13T21:31:22.203Z,82.54
2023-03-13T21:33:47.179Z,82.36
2023-03-13T21:36:11.724Z,83.29
2023-03-13T21:38:36.070Z,82.33
2023-03-13T21:41:01.111Z,82.02
2023-03-13T21:43:28.026Z,81.22
2023-03-13T21:45:51.576Z,80.93
2023-03-13T21:48:15.139Z,81.29
2023-03-13T21:50:38.728Z,80.54
2023-03-13T21:53:02.358Z,80.04
2023-03-13T21:55:26.073Z,80.94
2023-03-13T21:57:51.152Z,80.61
2023-03-13T22:00:16.100Z,80.85
2023-03-13T22:02:39.667Z,80.27
2023-03-13T22:05:03.387Z,81.27
2023-03-13T22:07:27.013Z,81.05
2023-03-13T22:09:50.596Z,80.66
2023-03-13T22:12:14.208Z,80.26
2023-03-13T22:14:39.372Z,80.28
2023-03-13T22:17:02.898Z,79.96
2023-03-13T22:19:26.554Z,81.00
2023-03-13T22:21:50.097Z,80.22
2023-03-13T22:24:14.163Z,79.85
2023-03-13T22:26:37.724Z,79.84
2023-03-13T22:29:01.344Z,80.12
2023-03-13T22:31:26.304Z,81.27
2023-03-13T22:33:49.908Z,80.32
2023-03-13T22:36:13.606Z,79.75
2023-03-13T22:38:39.043Z,79.56
2023-03-13T22:41:04.393Z,80.07
2023-03-13T22:43:28.168Z,79.19
2023-03-13T22:45:51.781Z,79.44
2023-03-13T22:48:16.761Z,79.22
2023-03-13T22:50:40.379Z,79.74
2023-03-13T22:53:04.396Z,80.19
2023-03-13T22:55:28.110Z,79.56
2023-03-13T22:57:51.861Z,80.19
2023-03-13T23:00:17.085Z,79.48
2023-03-13T23:02:40.610Z,78.94
2023-03-13T23:05:06.321Z,79.43
2023-03-13T23:07:32.289Z,79.74
2023-03-13T23:09:56.324Z,79.24
2023-03-13T23:12:21.208Z,79.43
2023-03-13T23:14:44.728Z,79.33
2023-03-13T23:17:08.359Z,79.02
2023-03-13T23:19:35.530Z,79.90
2023-03-13T23:22:00.514Z,79.25
2023-03-13T23:24:24.060Z,79.24
2023-03-13T23:26:47.614Z,79.10
2023-03-13T23:29:11.210Z,78.09
2023-03-13T23:31:34.950Z,78.93
2023-03-13T23:33:59.124Z,78.93
2023-03-13T23:36:22.859Z,80.24
2023-03-13T23:38:51.508Z,79.49
2023-03-13T23:41:16.279Z,80.17
2023-03-13T23:43:40.355Z,80.02
2023-03-13T23:46:04.615Z,80.61
2023-03-13T23:48:28.236Z,80.35
2023-03-13T23:50:51.873Z,79.29
2023-03-13T23:53:15.446Z,80.21
2023-03-13T23:55:40.445Z,79.08
2023-03-13T23:58:04.030Z,79.17
